createdAt,value
2017-11-03T00:00:44.015Z,0
2017-11-03T00:01:43.991Z,0
2017-11-03T00:02:43.645Z,0
2017-11-03T00:03:43.954Z,0
2017-11-03T00:04:43.953Z,0
2017-11-03T00:05:43.595Z,0
2017-11-03T00:06:43.575Z,0
2017-11-03T00:07:43.557Z,0
2017-11-03T00:08:43.873Z,0
2017-11-03T00:09:43.533Z,0
2017-11-03T00:10:43.505Z,0
2017-11-03T00:11:43.488Z,0
2017-11-03T00:12:43.806Z,0
2017-11-03T00:13:43.457Z,0
2017-11-03T00:14:43.772Z,0
2017-11-03T00:15:43.419Z,0
2017-11-03T00:16:43.404Z,0
2017-11-03T00:17:43.725Z,0
2017-11-03T00:18:43.708Z,0
2017-11-03T00:19:43.687Z,0
2017-11-03T00:20:43.337Z,0
2017-11-03T00:21:43.657Z,0
2017-11-03T00:22:43.639Z,0
2017-11-03T00:23:43.623Z,0
2017-11-03T00:24:43.611Z,0
2017-11-03T00:25:43.585Z,0
2017-11-03T00:26:43.630Z,0
2017-11-03T00:27:43.559Z,0
2017-11-03T00:28:43.201Z,0
2017-11-03T00:29:43.518Z,0
2017-11-03T00:30:43.507Z,0
2017-11-03T00:31:43.148Z,0
2017-11-03T00:32:43.466Z,0
2017-11-03T00:33:43.118Z,0
2017-11-03T00:34:43.100Z,0
2017-11-03T00:35:43.083Z,0
2017-11-03T00:36:43.405Z,0
2017-11-03T00:37:43.383Z,0
2017-11-03T00:38:43.389Z,0
2017-11-03T00:39:43.016Z,0
2017-11-03T00:40:43.333Z,0
2017-11-03T00:41:43.320Z,0
2017-11-03T00:42:43.298Z,0
2017-11-03T00:43:43.282Z,0
2017-11-03T00:44:43.261Z,0
2017-11-03T00:45:42.920Z,0
2017-11-03T00:46:43.230Z,0
2017-11-03T00:47:42.883Z,0
2017-11-03T00:48:43.198Z,0
2017-11-03T00:49:43.183Z,0
2017-11-03T00:50:43.166Z,0
2017-11-03T00:51:43.200Z,0
2017-11-03T00:52:43.132Z,0
2017-11-03T00:53:42.785Z,0
2017-11-03T00:54:42.761Z,0
2017-11-03T00:55:43.084Z,0
2017-11-03T00:56:42.734Z,0
2017-11-03T00:57:42.714Z,0
2017-11-03T00:58:43.032Z,0
2017-11-03T00:59:43.014Z,0
2017-11-03T01:00:42.665Z,0
2017-11-03T01:01:42.979Z,0
2017-11-03T01:02:42.965Z,0
2017-11-03T01:03:42.961Z,0
2017-11-03T01:04:42.934Z,0
2017-11-03T01:05:42.577Z,0
2017-11-03T01:06:42.563Z,0
2017-11-03T01:07:42.899Z,0
2017-11-03T01:08:42.861Z,0
2017-11-03T01:09:42.857Z,0
2017-11-03T01:10:42.493Z,0
2017-11-03T01:11:42.477Z,0
2017-11-03T01:12:42.803Z,0
2017-11-03T01:13:42.782Z,0
2017-11-03T01:14:42.761Z,0
2017-11-03T01:15:42.747Z,0
2017-11-03T01:16:42.728Z,0
2017-11-03T01:17:42.381Z,0
2017-11-03T01:18:42.359Z,0
2017-11-03T01:19:42.687Z,0
2017-11-03T01:20:42.327Z,0
2017-11-03T01:21:42.645Z,0
2017-11-03T01:22:42.628Z,0
2017-11-03T01:23:42.614Z,0
2017-11-03T01:24:42.267Z,0
2017-11-03T01:25:42.247Z,0
2017-11-03T01:26:42.229Z,0
2017-11-03T01:27:42.543Z,0
2017-11-03T01:28:42.532Z,0
2017-11-03T01:29:42.508Z,0
2017-11-03T01:30:42.494Z,0
2017-11-03T01:31:42.486Z,0
2017-11-03T01:32:42.462Z,0
2017-11-03T01:33:42.447Z,0
2017-11-03T01:34:42.428Z,0
2017-11-03T01:35:42.076Z,0
2017-11-03T01:36:42.057Z,0
2017-11-03T01:37:42.789Z,0
2017-11-03T01:38:42.359Z,0
2017-11-03T01:39:42.341Z,0
2017-11-03T01:40:42.327Z,0
2017-11-03T01:41:42.309Z,0
2017-11-03T01:42:41.964Z,0
2017-11-03T01:43:42.287Z,0
2017-11-03T01:44:42.261Z,0
2017-11-03T01:45:41.913Z,0
2017-11-03T01:46:41.892Z,0
2017-11-03T01:47:41.894Z,0
2017-11-03T01:48:42.201Z,0
2017-11-03T01:49:41.849Z,0
2017-11-03T01:50:42.160Z,0
2017-11-03T01:51:41.809Z,0
2017-11-03T01:52:42.126Z,0
2017-11-03T01:53:42.117Z,0
2017-11-03T01:54:41.757Z,0
2017-11-03T01:55:42.079Z,0
2017-11-03T01:56:42.058Z,0
2017-11-03T01:57:42.041Z,0
2017-11-03T01:58:41.694Z,0
2017-11-03T01:59:41.674Z,0
2017-11-03T02:00:41.994Z,0
2017-11-03T02:01:41.983Z,0
2017-11-03T02:02:41.634Z,0
2017-11-03T02:03:41.610Z,0
2017-11-03T02:04:41.595Z,0
2017-11-03T02:05:41.908Z,0
2017-11-03T02:06:41.563Z,0
2017-11-03T02:07:41.881Z,0
2017-11-03T02:08:41.857Z,0
2017-11-03T02:09:41.509Z,0
2017-11-03T02:10:41.493Z,0
2017-11-03T02:11:41.828Z,0
2017-11-03T02:12:41.458Z,0
2017-11-03T02:13:41.785Z,0
2017-11-03T02:14:41.426Z,0
2017-11-03T02:15:41.744Z,0
2017-11-03T02:16:41.727Z,0
2017-11-03T02:17:41.383Z,0
2017-11-03T02:18:41.708Z,0
2017-11-03T02:19:41.676Z,0
2017-11-03T02:20:41.659Z,0
2017-11-03T02:21:41.644Z,0
2017-11-03T02:22:41.635Z,0
2017-11-03T02:23:41.337Z,0
2017-11-03T02:24:41.598Z,0
2017-11-03T02:25:41.243Z,0
2017-11-03T02:26:41.230Z,0
2017-11-03T02:27:41.210Z,0
2017-11-03T02:28:41.532Z,0
2017-11-03T02:29:41.511Z,0
2017-11-03T02:30:41.509Z,0
2017-11-03T02:31:41.479Z,0
2017-11-03T02:32:41.465Z,0
2017-11-03T02:33:41.448Z,0
2017-11-03T02:34:41.094Z,0
2017-11-03T02:35:41.411Z,0
2017-11-03T02:36:41.394Z,0
2017-11-03T02:37:41.379Z,0
2017-11-03T02:38:41.361Z,0
2017-11-03T02:39:41.018Z,0
2017-11-03T02:40:41.327Z,0
2017-11-03T02:41:41.314Z,0
2017-11-03T02:42:41.301Z,0
2017-11-03T02:43:41.285Z,0
2017-11-03T02:44:41.276Z,0
2017-11-03T02:45:41.250Z,0
2017-11-03T02:46:40.900Z,0
2017-11-03T02:47:41.212Z,0
2017-11-03T02:48:41.203Z,0
2017-11-03T02:49:41.184Z,0
2017-11-03T02:50:40.834Z,0
2017-11-03T02:51:40.819Z,0
2017-11-03T02:52:41.133Z,0
2017-11-03T02:53:41.118Z,0
2017-11-03T02:54:41.107Z,0
2017-11-03T02:55:40.755Z,0
2017-11-03T02:56:41.067Z,0
2017-11-03T02:57:40.718Z,0
2017-11-03T02:58:40.702Z,0
2017-11-03T02:59:41.021Z,0
2017-11-03T03:00:41.001Z,0
2017-11-03T03:01:40.984Z,0
2017-11-03T03:02:40.634Z,0
2017-11-03T03:03:40.958Z,0
2017-11-03T03:04:40.936Z,0
2017-11-03T03:05:40.929Z,0
2017-11-03T03:06:40.903Z,0
2017-11-03T03:07:40.555Z,0
2017-11-03T03:08:40.541Z,0
2017-11-03T03:09:40.856Z,0
2017-11-03T03:10:40.838Z,0
2017-11-03T03:11:40.492Z,0
2017-11-03T03:12:40.807Z,0
2017-11-03T03:13:40.460Z,0
2017-11-03T03:14:40.784Z,0
2017-11-03T03:15:40.426Z,0
2017-11-03T03:16:40.410Z,0
2017-11-03T03:17:40.729Z,0
2017-11-03T03:18:40.708Z,0
2017-11-03T03:19:40.362Z,0
2017-11-03T03:20:40.677Z,0
2017-11-03T03:21:40.666Z,0
2017-11-03T03:22:40.643Z,0
2017-11-03T03:23:40.629Z,0
2017-11-03T03:24:40.611Z,0
2017-11-03T03:25:40.262Z,0
2017-11-03T03:26:40.579Z,0
2017-11-03T03:27:40.565Z,0
2017-11-03T03:28:40.548Z,0
2017-11-03T03:29:40.527Z,0
2017-11-03T03:30:40.185Z,0
2017-11-03T03:31:40.499Z,0
2017-11-03T03:32:40.485Z,0
2017-11-03T03:33:40.132Z,0
2017-11-03T03:34:40.117Z,0
2017-11-03T03:35:40.437Z,0
2017-11-03T03:36:40.084Z,0
2017-11-03T03:37:40.401Z,0
2017-11-03T03:38:40.055Z,0
2017-11-03T03:39:40.371Z,0
2017-11-03T03:40:40.020Z,0
2017-11-03T03:41:40.346Z,0
2017-11-03T03:42:40.327Z,0
2017-11-03T03:43:39.974Z,0
2017-11-03T03:44:39.962Z,0
2017-11-03T03:45:40.282Z,0
2017-11-03T03:46:40.264Z,0
2017-11-03T03:47:40.240Z,0
2017-11-03T03:48:40.224Z,0
2017-11-03T03:49:40.212Z,0
2017-11-03T03:50:40.192Z,0
2017-11-03T03:51:39.846Z,0
2017-11-03T03:52:40.162Z,0
2017-11-03T03:53:40.147Z,0
2017-11-03T03:54:40.127Z,0
2017-11-03T03:55:39.777Z,0
2017-11-03T03:56:40.098Z,0
2017-11-03T03:57:40.082Z,0
2017-11-03T03:58:40.061Z,0
2017-11-03T03:59:40.049Z,0
2017-11-03T04:00:40.033Z,0
2017-11-03T04:01:40.016Z,0
2017-11-03T04:02:39.998Z,0
2017-11-03T04:03:39.998Z,0
2017-11-03T04:04:39.638Z,0
2017-11-03T04:05:39.614Z,0
2017-11-03T04:06:39.935Z,0
2017-11-03T04:07:39.919Z,0
2017-11-03T04:08:39.566Z,0
2017-11-03T04:09:39.555Z,0
2017-11-03T04:10:39.536Z,0
2017-11-03T04:11:39.855Z,0
2017-11-03T04:12:39.503Z,0
2017-11-03T04:13:39.819Z,0
2017-11-03T04:14:39.808Z,0
2017-11-03T04:15:39.789Z,0
2017-11-03T04:16:39.446Z,0
2017-11-03T04:17:39.759Z,0
2017-11-03T04:18:39.742Z,0
2017-11-03T04:19:39.394Z,0
2017-11-03T04:20:39.377Z,0
2017-11-03T04:21:39.691Z,0
2017-11-03T04:22:39.686Z,0
2017-11-03T04:23:39.331Z,0
2017-11-03T04:24:39.321Z,0
2017-11-03T04:25:39.291Z,0
2017-11-03T04:26:39.614Z,0
2017-11-03T04:27:39.260Z,0
2017-11-03T04:28:39.579Z,0
2017-11-03T04:29:39.230Z,0
2017-11-03T04:30:39.215Z,0
2017-11-03T04:31:39.196Z,0
2017-11-03T04:32:39.183Z,0
2017-11-03T04:33:39.164Z,0
2017-11-03T04:34:39.477Z,0
2017-11-03T04:35:39.467Z,0
2017-11-03T04:36:39.118Z,0
2017-11-03T04:37:39.101Z,0
2017-11-03T04:38:39.422Z,0
2017-11-03T04:39:39.063Z,0
2017-11-03T04:40:39.387Z,0
2017-11-03T04:41:39.040Z,0
2017-11-03T04:42:39.012Z,0
2017-11-03T04:43:38.999Z,0
2017-11-03T04:44:39.316Z,0
2017-11-03T04:45:39.298Z,0
2017-11-03T04:46:38.952Z,0
2017-11-03T04:47:39.263Z,0
2017-11-03T04:48:39.251Z,0
2017-11-03T04:49:38.901Z,0
2017-11-03T04:50:39.215Z,0
2017-11-03T04:51:38.866Z,0
2017-11-03T04:52:39.186Z,0
2017-11-03T04:53:38.837Z,0
2017-11-03T04:54:39.166Z,0
2017-11-03T04:55:38.803Z,0
2017-11-03T04:56:39.118Z,0
2017-11-03T04:57:38.772Z,0
2017-11-03T04:58:38.755Z,0
2017-11-03T04:59:38.750Z,0
2017-11-03T05:00:38.718Z,0
2017-11-03T05:01:38.709Z,0
2017-11-03T05:02:38.684Z,0
2017-11-03T05:03:38.666Z,0
2017-11-03T05:04:38.986Z,0
2017-11-03T05:05:38.639Z,0
2017-11-03T05:06:38.951Z,0
2017-11-03T05:07:38.935Z,0
2017-11-03T05:08:38.588Z,0
2017-11-03T05:09:38.574Z,0
2017-11-03T05:10:38.897Z,0
2017-11-03T05:11:38.869Z,0
2017-11-03T05:12:38.522Z,0
2017-11-03T05:13:38.836Z,0
2017-11-03T05:14:38.821Z,0
2017-11-03T05:15:38.467Z,0
2017-11-03T05:16:38.793Z,0
2017-11-03T05:17:38.771Z,0
2017-11-03T05:18:38.418Z,0
2017-11-03T05:19:38.736Z,0
2017-11-03T05:20:38.720Z,0
2017-11-03T05:21:38.377Z,0
2017-11-03T05:22:38.353Z,0
2017-11-03T05:23:38.677Z,0
2017-11-03T05:24:38.668Z,0
2017-11-03T05:25:38.636Z,0
2017-11-03T05:26:38.287Z,0
2017-11-03T05:27:38.269Z,0
2017-11-03T05:28:38.251Z,0
2017-11-03T05:29:38.240Z,0
2017-11-03T05:30:38.554Z,0
2017-11-03T05:31:38.205Z,0
2017-11-03T05:32:38.526Z,0
2017-11-03T05:33:38.172Z,0
2017-11-03T05:34:38.154Z,0
2017-11-03T05:35:38.469Z,0
2017-11-03T05:36:38.122Z,0
2017-11-03T05:37:38.437Z,0
2017-11-03T05:38:38.622Z,0
2017-11-03T05:39:38.407Z,0
2017-11-03T05:40:38.055Z,0
2017-11-03T05:41:38.041Z,0
2017-11-03T05:42:38.024Z,0
2017-11-03T05:43:38.340Z,0
2017-11-03T05:44:38.324Z,0
2017-11-03T05:45:38.310Z,0
2017-11-03T05:46:38.291Z,0
2017-11-03T05:47:37.941Z,0
2017-11-03T05:48:37.924Z,0
2017-11-03T05:49:38.242Z,0
2017-11-03T05:50:38.219Z,0
2017-11-03T05:51:38.205Z,0
2017-11-03T05:52:37.863Z,0
2017-11-03T05:53:38.194Z,0
2017-11-03T05:54:37.827Z,0
2017-11-03T05:55:37.807Z,0
2017-11-03T05:56:38.126Z,0
2017-11-03T05:57:37.771Z,0
2017-11-03T05:58:37.756Z,0
2017-11-03T05:59:38.077Z,0
2017-11-03T06:00:38.062Z,0
2017-11-03T06:01:38.043Z,0
2017-11-03T06:02:38.023Z,0
2017-11-03T06:03:38.008Z,0
2017-11-03T06:04:38.005Z,0
2017-11-03T06:05:37.973Z,0
2017-11-03T06:06:37.955Z,0
2017-11-03T06:07:37.608Z,0
2017-11-03T06:08:37.928Z,0
2017-11-03T06:09:37.912Z,0
2017-11-03T06:10:37.558Z,0
2017-11-03T06:11:37.894Z,0
2017-11-03T06:12:37.858Z,0
2017-11-03T06:13:37.838Z,0
2017-11-03T06:14:37.828Z,0
2017-11-03T06:15:37.814Z,0
2017-11-03T06:16:37.795Z,0
2017-11-03T06:17:37.443Z,0
2017-11-03T06:18:37.771Z,0
2017-11-03T06:19:37.742Z,0
2017-11-03T06:20:37.726Z,0
2017-11-03T06:21:37.708Z,0
2017-11-03T06:22:37.363Z,0
2017-11-03T06:23:37.676Z,0
2017-11-03T06:24:37.326Z,0.09
2017-11-03T06:25:37.642Z,0.19
2017-11-03T06:26:37.628Z,0.09
2017-11-03T06:27:37.608Z,0.09
2017-11-03T06:28:37.594Z,0
2017-11-03T06:29:37.246Z,0
2017-11-03T06:30:37.566Z,0.57
2017-11-03T06:31:37.212Z,0.28
2017-11-03T06:32:37.191Z,0.57
2017-11-03T06:33:37.515Z,0.85
2017-11-03T06:34:37.170Z,0.57
2017-11-03T06:35:37.497Z,0.85
2017-11-03T06:36:37.467Z,0.95
2017-11-03T06:37:37.446Z,1.14
2017-11-03T06:38:37.431Z,1.62
2017-11-03T06:39:37.079Z,1.14
2017-11-03T06:40:37.069Z,1.62
2017-11-03T06:41:37.396Z,1.62
2017-11-03T06:42:37.037Z,2.09
2017-11-03T06:43:37.352Z,2.09
2017-11-03T06:44:37.330Z,2.28
2017-11-03T06:45:36.979Z,2.47
2017-11-03T06:46:36.963Z,2.57
2017-11-03T06:47:37.275Z,3.05
2017-11-03T06:48:36.935Z,2.95
2017-11-03T06:49:37.250Z,3.05
2017-11-03T06:50:36.904Z,2.95
2017-11-03T06:51:37.210Z,2.86
2017-11-03T06:52:37.200Z,3.14
2017-11-03T06:53:37.187Z,3.61
2017-11-03T06:54:37.167Z,3.81
2017-11-03T06:55:36.820Z,4.19
2017-11-03T06:56:37.128Z,4.38
2017-11-03T06:57:37.111Z,4.47
2017-11-03T06:58:37.096Z,4.76
2017-11-03T06:59:37.090Z,4.76
2017-11-03T07:00:37.061Z,5.24
2017-11-03T07:01:37.051Z,5.33
2017-11-03T07:02:36.698Z,5.52
2017-11-03T07:03:37.011Z,5.99
2017-11-03T07:04:37.013Z,6.47
2017-11-03T07:05:36.981Z,6.85
2017-11-03T07:06:36.633Z,7.33
2017-11-03T07:07:36.952Z,7.62
2017-11-03T07:08:36.935Z,8.37
2017-11-03T07:09:36.918Z,8.67
2017-11-03T07:10:36.900Z,9.14
2017-11-03T07:11:36.886Z,9.43
2017-11-03T07:12:36.535Z,10.19
2017-11-03T07:13:36.516Z,10.48
2017-11-03T07:14:36.844Z,10.96
2017-11-03T07:15:36.483Z,11.33
2017-11-03T07:16:36.800Z,12.29
2017-11-03T07:17:36.809Z,12.38
2017-11-03T07:18:36.435Z,13.15
2017-11-03T07:19:36.753Z,13.43
2017-11-03T07:20:36.780Z,13.9
2017-11-03T07:21:36.719Z,14.39
2017-11-03T07:22:36.372Z,15.14
2017-11-03T07:23:36.687Z,15.62
2017-11-03T07:24:36.332Z,16.58
2017-11-03T07:25:36.651Z,16.67
2017-11-03T07:26:36.302Z,17.24
2017-11-03T07:27:36.618Z,17.81
2017-11-03T07:28:36.600Z,18.48
2017-11-03T07:29:36.252Z,19.43
2017-11-03T07:30:36.579Z,19.72
2017-11-03T07:31:36.221Z,20.29
2017-11-03T07:32:36.548Z,21.05
2017-11-03T07:33:36.188Z,21.53
2017-11-03T07:34:36.173Z,21.81
2017-11-03T07:35:36.155Z,22.48
2017-11-03T07:36:36.472Z,23.43
2017-11-03T07:37:36.124Z,23.72
2017-11-03T07:38:36.643Z,24.29
2017-11-03T07:39:36.421Z,24.48
2017-11-03T07:40:36.419Z,25.24
2017-11-03T07:41:36.058Z,25.72
2017-11-03T07:42:36.371Z,26.86
2017-11-03T07:43:36.355Z,27.25
2017-11-03T07:44:36.338Z,27.44
2017-11-03T07:45:36.325Z,28.2
2017-11-03T07:46:36.313Z,28.77
2017-11-03T07:47:35.959Z,29.05
2017-11-03T07:48:36.273Z,28.67
2017-11-03T07:49:36.262Z,29.53
2017-11-03T07:50:35.912Z,29.53
2017-11-03T07:51:35.897Z,30.1
2017-11-03T07:52:35.883Z,30.77
2017-11-03T07:53:35.863Z,31.24
2017-11-03T07:54:35.849Z,31.72
2017-11-03T07:55:35.832Z,31.92
2017-11-03T07:56:36.150Z,32.29
2017-11-03T07:57:36.145Z,32.68
2017-11-03T07:58:36.116Z,33.53
2017-11-03T07:59:35.763Z,33.82
2017-11-03T08:00:36.285Z,34.48
2017-11-03T08:01:35.733Z,34.77
2017-11-03T08:02:35.717Z,35.06
2017-11-03T08:03:36.039Z,35.72
2017-11-03T08:04:35.688Z,38.1
2017-11-03T08:05:36.000Z,40.11
2017-11-03T08:06:35.656Z,41.72
2017-11-03T08:07:35.983Z,41.92
2017-11-03T08:08:35.962Z,41.72
2017-11-03T08:09:35.607Z,41.92
2017-11-03T08:10:35.925Z,42.96
2017-11-03T08:11:35.957Z,43.73
2017-11-03T08:12:35.892Z,45.92
2017-11-03T08:13:35.544Z,47.16
2017-11-03T08:14:35.861Z,47.54
2017-11-03T08:15:35.509Z,47.16
2017-11-03T08:16:35.826Z,46.97
2017-11-03T08:17:35.813Z,48.23
2017-11-03T08:18:35.846Z,50.3
2017-11-03T08:19:35.777Z,50.78
2017-11-03T08:20:35.430Z,50.59
2017-11-03T08:21:35.751Z,50.68
2017-11-03T08:22:35.740Z,51.18
2017-11-03T08:23:35.712Z,51.47
2017-11-03T08:24:35.697Z,53
2017-11-03T08:25:35.681Z,52.9
2017-11-03T08:26:35.668Z,54.9
2017-11-03T08:27:35.654Z,56.24
2017-11-03T08:28:35.639Z,57.19
2017-11-03T08:29:35.286Z,57.48
2017-11-03T08:30:35.272Z,57.09
2017-11-03T08:31:35.254Z,57.38
2017-11-03T08:32:35.574Z,57.38
2017-11-03T08:33:35.656Z,59.95
2017-11-03T08:34:35.544Z,62.43
2017-11-03T08:35:35.535Z,63.67
2017-11-03T08:36:35.179Z,64.05
2017-11-03T08:37:35.509Z,63.57
2017-11-03T08:38:35.146Z,63.67
2017-11-03T08:39:35.131Z,63.76
2017-11-03T08:40:35.122Z,64.15
2017-11-03T08:41:35.433Z,65.77
2017-11-03T08:42:35.419Z,67.29
2017-11-03T08:43:35.555Z,67.96
2017-11-03T08:44:35.057Z,71.77
2017-11-03T08:45:35.037Z,72.06
2017-11-03T08:46:35.022Z,72.34
2017-11-03T08:47:35.342Z,72.53
2017-11-03T08:48:34.993Z,74.06
2017-11-03T08:49:34.970Z,76.54
2017-11-03T08:50:35.296Z,80.54
2017-11-03T08:51:34.941Z,79.59
2017-11-03T08:52:34.931Z,78.83
2017-11-03T08:53:34.912Z,79.88
2017-11-03T08:54:34.895Z,80.64
2017-11-03T08:55:34.882Z,82.07
2017-11-03T08:56:35.199Z,82.45
2017-11-03T08:57:34.852Z,87.83
2017-11-03T08:58:35.170Z,88.55
2017-11-03T08:59:34.821Z,88.26
2017-11-03T09:00:34.807Z,88.84
2017-11-03T09:01:35.122Z,89.64
2017-11-03T09:02:35.107Z,90.03
2017-11-03T09:03:35.101Z,92.32
2017-11-03T09:04:34.742Z,91.69
2017-11-03T09:05:35.061Z,90.98
2017-11-03T09:06:34.720Z,92.69
2017-11-03T09:07:35.033Z,93.08
2017-11-03T09:08:35.016Z,92.88
2017-11-03T09:09:34.666Z,92.79
2017-11-03T09:10:34.982Z,92.32
2017-11-03T09:11:34.975Z,92.98
2017-11-03T09:12:34.618Z,92.98
2017-11-03T09:13:34.613Z,93.27
2017-11-03T09:14:34.933Z,94.32
2017-11-03T09:15:34.576Z,95.27
2017-11-03T09:16:34.895Z,97.27
2017-11-03T09:17:34.546Z,97.66
2017-11-03T09:18:34.528Z,97.37
2017-11-03T09:19:34.516Z,97.17
2017-11-03T09:20:34.855Z,98.32
2017-11-03T09:21:34.818Z,98.8
2017-11-03T09:22:34.801Z,99.18
2017-11-03T09:23:34.787Z,99.99
2017-11-03T09:24:34.441Z,99.99
2017-11-03T09:25:34.782Z,99.99
2017-11-03T09:26:34.406Z,99.99
2017-11-03T09:27:34.722Z,99.99
2017-11-03T09:28:34.378Z,99.99
2017-11-03T09:29:34.721Z,99.99
2017-11-03T09:30:34.700Z,99.99
2017-11-03T09:31:34.682Z,99.99
2017-11-03T09:32:34.317Z,99.99
2017-11-03T09:33:34.309Z,99.99
2017-11-03T09:34:34.620Z,99.99
2017-11-03T09:35:34.273Z,99.99
2017-11-03T09:36:34.255Z,99.99
2017-11-03T09:37:34.243Z,99.99
2017-11-03T09:38:34.774Z,99.99
2017-11-03T09:39:34.220Z,99.99
2017-11-03T09:40:34.200Z,99.99
2017-11-03T09:41:34.183Z,99.99
2017-11-03T09:42:34.168Z,99.99
2017-11-03T09:43:34.486Z,99.99
2017-11-03T09:44:34.141Z,99.99
2017-11-03T09:45:34.123Z,99.99
2017-11-03T09:46:34.447Z,99.99
2017-11-03T09:47:34.426Z,99.99
2017-11-03T09:48:34.077Z,99.99
2017-11-03T09:49:34.063Z,99.99
2017-11-03T09:50:34.384Z,99.99
2017-11-03T09:51:34.372Z,99.99
2017-11-03T09:52:34.020Z,99.99
2017-11-03T09:53:34.337Z,99.99
2017-11-03T09:54:33.987Z,99.99
2017-11-03T09:55:34.306Z,99.99
2017-11-03T09:56:34.295Z,99.99
2017-11-03T09:57:34.282Z,99.99
2017-11-03T09:58:34.271Z,99.99
2017-11-03T09:59:34.261Z,99.99
2017-11-03T10:00:34.236Z,99.99
2017-11-03T10:01:34.222Z,99.99
2017-11-03T10:02:34.237Z,99.99
2017-11-03T10:03:34.194Z,99.99
2017-11-03T10:04:34.184Z,99.99
2017-11-03T10:05:34.165Z,99.99
2017-11-03T10:06:34.156Z,99.99
2017-11-03T10:07:34.134Z,99.99
2017-11-03T10:08:34.125Z,99.99
2017-11-03T10:09:34.160Z,99.99
2017-11-03T10:10:34.090Z,99.99
2017-11-03T10:11:34.077Z,99.99
2017-11-03T10:12:34.065Z,99.99
2017-11-03T10:13:33.716Z,99.99
2017-11-03T10:14:34.039Z,99.99
2017-11-03T10:15:33.687Z,99.99
2017-11-03T10:16:33.675Z,99.99
2017-11-03T10:17:33.990Z,99.99
2017-11-03T10:18:33.981Z,99.99
2017-11-03T10:19:33.963Z,99.99
2017-11-03T10:20:33.949Z,99.99
2017-11-03T10:21:33.934Z,99.99
2017-11-03T10:22:33.584Z,99.99
2017-11-03T10:23:33.576Z,99.99
2017-11-03T10:24:33.560Z,99.99
2017-11-03T10:25:33.876Z,99.99
2017-11-03T10:26:33.862Z,99.99
2017-11-03T10:27:33.516Z,99.99
2017-11-03T10:28:33.498Z,99.99
2017-11-03T10:29:33.484Z,99.99
2017-11-03T10:30:33.470Z,99.99
2017-11-03T10:31:33.461Z,99.99
2017-11-03T10:32:33.444Z,99.99
2017-11-03T10:33:33.435Z,99.99
2017-11-03T10:34:33.625Z,99.99
2017-11-03T10:35:33.744Z,99.99
2017-11-03T10:36:33.389Z,99.99
2017-11-03T10:37:33.714Z,99.99
2017-11-03T10:38:33.698Z,99.99
2017-11-03T10:39:33.350Z,99.99
2017-11-03T10:40:33.678Z,99.99
2017-11-03T10:41:33.654Z,99.99
2017-11-03T10:42:33.641Z,99.99
2017-11-03T10:43:33.621Z,99.99
2017-11-03T10:44:33.614Z,99.99
2017-11-03T10:45:33.264Z,99.99
2017-11-03T10:46:33.583Z,99.99
2017-11-03T10:47:33.579Z,99.99
2017-11-03T10:48:33.227Z,99.99
2017-11-03T10:49:33.537Z,99.99
2017-11-03T10:50:33.527Z,99.99
2017-11-03T10:51:33.515Z,99.99
2017-11-03T10:52:33.498Z,99.99
2017-11-03T10:53:33.486Z,99.99
2017-11-03T10:54:33.489Z,99.99
2017-11-03T10:55:33.458Z,99.99
2017-11-03T10:56:33.450Z,99.99
2017-11-03T10:57:33.432Z,99.99
2017-11-03T10:58:33.424Z,99.99
2017-11-03T10:59:33.401Z,99.99
2017-11-03T11:00:33.059Z,99.99
2017-11-03T11:01:33.376Z,99.99
2017-11-03T11:02:33.368Z,99.99
2017-11-03T11:03:33.350Z,99.99
2017-11-03T11:04:33.333Z,99.99
2017-11-03T11:05:32.986Z,99.99
2017-11-03T11:06:32.990Z,99.99
2017-11-03T11:07:33.296Z,99.99
2017-11-03T11:08:33.277Z,99.99
2017-11-03T11:09:33.273Z,99.99
2017-11-03T11:10:32.923Z,99.99
2017-11-03T11:11:32.903Z,99.99
2017-11-03T11:12:32.893Z,99.99
2017-11-03T11:13:33.212Z,99.99
2017-11-03T11:14:32.863Z,99.99
2017-11-03T11:15:33.235Z,99.99
2017-11-03T11:16:33.173Z,99.99
2017-11-03T11:17:32.827Z,99.99
2017-11-03T11:18:32.806Z,99.99
2017-11-03T11:19:33.131Z,99.99
2017-11-03T11:20:33.115Z,99.99
2017-11-03T11:21:32.766Z,99.99
2017-11-03T11:22:33.089Z,99.99
2017-11-03T11:23:33.075Z,99.99
2017-11-03T11:24:33.059Z,99.99
2017-11-03T11:25:33.051Z,99.99
2017-11-03T11:26:33.044Z,99.99
2017-11-03T11:27:32.687Z,99.99
2017-11-03T11:28:33.006Z,99.99
2017-11-03T11:29:32.997Z,99.99
2017-11-03T11:30:32.646Z,99.99
2017-11-03T11:31:32.968Z,99.99
2017-11-03T11:32:32.617Z,99.99
2017-11-03T11:33:32.607Z,99.99
2017-11-03T11:34:32.925Z,99.99
2017-11-03T11:35:32.579Z,99.99
2017-11-03T11:36:32.566Z,99.99
2017-11-03T11:37:32.891Z,99.99
2017-11-03T11:38:33.078Z,99.99
2017-11-03T11:39:32.864Z,99.99
2017-11-03T11:40:32.518Z,99.99
2017-11-03T11:41:32.497Z,99.99
2017-11-03T11:42:32.823Z,99.99
2017-11-03T11:43:32.470Z,99.99
2017-11-03T11:44:32.791Z,99.99
2017-11-03T11:45:32.781Z,99.99
2017-11-03T11:46:32.763Z,99.99
2017-11-03T11:47:32.749Z,99.99
2017-11-03T11:48:32.737Z,99.99
2017-11-03T11:49:32.722Z,99.99
2017-11-03T11:50:32.713Z,99.99
2017-11-03T11:51:32.701Z,99.99
2017-11-03T11:52:32.686Z,99.99
2017-11-03T11:53:32.671Z,99.99
2017-11-03T11:54:32.327Z,99.99
2017-11-03T11:55:32.314Z,99.99
2017-11-03T11:56:32.635Z,99.99
2017-11-03T11:57:32.623Z,99.99
2017-11-03T11:58:32.604Z,99.99
2017-11-03T11:59:32.257Z,99.99
2017-11-03T12:00:32.245Z,99.99
2017-11-03T12:01:32.563Z,99.99
2017-11-03T12:02:32.217Z,99.99
2017-11-03T12:03:32.203Z,99.99
2017-11-03T12:04:32.533Z,99.99
2017-11-03T12:05:32.510Z,99.99
2017-11-03T12:06:32.219Z,99.99
2017-11-03T12:07:32.513Z,99.99
2017-11-03T12:08:32.135Z,99.99
2017-11-03T12:09:32.462Z,99.99
2017-11-03T12:10:32.443Z,99.99
2017-11-03T12:11:32.099Z,99.99
2017-11-03T12:12:32.081Z,99.99
2017-11-03T12:13:32.409Z,99.99
2017-11-03T12:14:32.058Z,99.99
2017-11-03T12:15:32.047Z,99.99
2017-11-03T12:16:32.363Z,99.99
2017-11-03T12:17:32.350Z,99.99
2017-11-03T12:18:32.344Z,99.99
2017-11-03T12:19:32.324Z,99.99
2017-11-03T12:20:32.311Z,99.99
2017-11-03T12:21:32.297Z,99.99
2017-11-03T12:22:31.948Z,99.99
2017-11-03T12:23:31.941Z,99.99
2017-11-03T12:24:31.929Z,99.99
2017-11-03T12:25:32.250Z,99.99
2017-11-03T12:26:31.901Z,99.99
2017-11-03T12:27:31.893Z,99.99
2017-11-03T12:28:32.216Z,99.99
2017-11-03T12:29:31.858Z,99.99
2017-11-03T12:30:31.846Z,99.99
2017-11-03T12:31:32.165Z,99.99
2017-11-03T12:32:32.158Z,99.99
2017-11-03T12:33:32.145Z,99.99
2017-11-03T12:34:31.790Z,99.99
2017-11-03T12:35:31.787Z,99.99
2017-11-03T12:36:31.772Z,99.99
2017-11-03T12:37:31.760Z,99.99
2017-11-03T12:38:31.738Z,99.99
2017-11-03T12:39:31.723Z,99.99
2017-11-03T12:40:31.710Z,99.99
2017-11-03T12:41:32.034Z,99.99
2017-11-03T12:42:31.683Z,99.99
2017-11-03T12:43:31.670Z,99.99
2017-11-03T12:44:31.990Z,99.99
2017-11-03T12:45:31.646Z,99.99
2017-11-03T12:46:31.961Z,99.99
2017-11-03T12:47:31.947Z,99.99
2017-11-03T12:48:31.940Z,99.99
2017-11-03T12:49:31.587Z,99.99
2017-11-03T12:50:31.915Z,99.99
2017-11-03T12:51:31.894Z,99.99
2017-11-03T12:52:31.881Z,99.99
2017-11-03T12:53:31.885Z,99.99
2017-11-03T12:54:31.519Z,99.99
2017-11-03T12:55:31.508Z,99.99
2017-11-03T12:56:31.830Z,99.99
2017-11-03T12:57:31.816Z,99.99
2017-11-03T12:58:31.797Z,99.99
2017-11-03T12:59:31.451Z,99.99
2017-11-03T13:00:31.782Z,99.99
2017-11-03T13:01:31.756Z,99.99
2017-11-03T13:02:31.410Z,99.99
2017-11-03T13:03:31.395Z,99.99
2017-11-03T13:04:31.724Z,99.99
2017-11-03T13:05:31.369Z,99.99
2017-11-03T13:06:31.689Z,99.99
2017-11-03T13:07:31.672Z,99.99
2017-11-03T13:08:31.328Z,99.99
2017-11-03T13:09:31.676Z,99.99
2017-11-03T13:10:31.298Z,99.99
2017-11-03T13:11:31.286Z,99.99
2017-11-03T13:12:31.268Z,99.99
2017-11-03T13:13:31.588Z,99.99
2017-11-03T13:14:31.246Z,99.99
2017-11-03T13:15:31.560Z,99.99
2017-11-03T13:16:31.213Z,99.99
2017-11-03T13:17:31.254Z,99.99
2017-11-03T13:18:31.520Z,99.99
2017-11-03T13:19:31.173Z,99.99
2017-11-03T13:20:31.492Z,99.99
2017-11-03T13:21:31.156Z,99.99
2017-11-03T13:22:31.468Z,99.99
2017-11-03T13:23:31.121Z,99.99
2017-11-03T13:24:31.107Z,99.99
2017-11-03T13:25:31.095Z,99.99
2017-11-03T13:26:31.083Z,99.99
2017-11-03T13:27:31.270Z,99.99
2017-11-03T13:28:31.392Z,99.99
2017-11-03T13:29:31.042Z,99.99
2017-11-03T13:30:31.029Z,99.99
2017-11-03T13:31:31.013Z,99.99
2017-11-03T13:32:31.337Z,99.99
2017-11-03T13:33:31.328Z,99.99
2017-11-03T13:34:31.312Z,99.99
2017-11-03T13:35:31.296Z,99.99
2017-11-03T13:36:30.949Z,99.99
2017-11-03T13:37:30.935Z,99.99
2017-11-03T13:38:31.666Z,99.99
2017-11-03T13:39:30.911Z,99.99
2017-11-03T13:40:30.904Z,99.99
2017-11-03T13:41:30.891Z,99.99
2017-11-03T13:42:30.868Z,99.99
2017-11-03T13:43:31.201Z,99.99
2017-11-03T13:44:31.177Z,99.99